Time;durP1;ratioP1;P1;durP2;ratioP2;P2;SDS_P1;SDS_P2;PMS_P1;PMS_P2;Temp;Humidity;BMP_temperature;BMP_pressure;BME280_temperature;BME280_humidity;BME280_pressure;Samples;Min_cycle;Max_cycle;Signal;HPM_P1;HPM_P2
2021/03/20 00:01:34;;;;;;;10.10;5.40;;;;;;;;;;774997;179;919256;-70
2021/03/20 00:04:00;;;;;;;16.60;7.47;;;;;;;;;;777822;179;919909;-70
2021/03/20 00:06:26;;;;;;;11.55;6.97;;;;;;;;;;778975;175;920977;-70
2021/03/20 00:08:52;;;;;;;9.63;5.50;;;;;;;;;;767275;179;2372685;-71
2021/03/20 00:11:18;;;;;;;13.00;5.45;;;;;;;;;;774727;179;919788;-68
2021/03/20 00:13:43;;;;;;;13.47;7.93;;;;;;;;;;779896;179;911734;-72
2021/03/20 00:16:09;;;;;;;11.57;6.60;;;;;;;;;;778501;179;916501;-71
2021/03/20 00:18:35;;;;;;;6.60;4.10;;;;;;;;;;775086;179;913470;-72
2021/03/20 00:21:01;;;;;;;12.43;4.93;;;;;;;;;;783543;179;919214;-71
2021/03/20 00:23:27;;;;;;;8.70;5.40;;;;;;;;;;775584;179;918558;-72
2021/03/20 00:25:53;;;;;;;16.90;7.40;;;;;;;;;;779320;179;904556;-71
2021/03/20 00:28:22;;;;;;;15.97;7.80;;;;;;;;;;774428;179;2221711;-70
2021/03/20 00:30:48;;;;;;;8.03;5.50;;;;;;;;;;775869;182;918499;-71
2021/03/20 00:33:14;;;;;;;12.47;7.17;;;;;;;;;;774966;179;918559;-70
2021/03/20 00:35:40;;;;;;;14.07;7.07;;;;;;;;;;777967;179;919380;-71
2021/03/20 00:38:05;;;;;;;21.33;6.30;;;;;;;;;;779793;179;921306;-71
2021/03/20 00:40:31;;;;;;;13.40;3.73;;;;;;;;;;778209;179;920687;-70
2021/03/20 00:43:01;;;;;;;10.00;5.22;;;;;;;;;;773980;179;919522;-69
2021/03/20 00:45:27;;;;;;;4.80;3.20;;;;;;;;;;783779;177;919356;-70
2021/03/20 00:47:53;;;;;;;13.27;4.70;;;;;;;;;;780500;178;918940;-70
2021/03/20 00:50:19;;;;;;;9.80;5.07;;;;;;;;;;775065;178;1096295;-70
2021/03/20 00:52:45;;;;;;;11.03;4.07;;;;;;;;;;774762;179;919424;-71
2021/03/20 00:55:11;;;;;;;15.40;5.40;;;;;;;;;;778115;179;920580;-70
2021/03/20 00:57:37;;;;;;;9.77;5.27;;;;;;;;;;779900;178;915414;-70
2021/03/20 01:00:03;;;;;;;9.47;4.43;;;;;;;;;;776126;178;916539;-70
2021/03/20 01:02:28;;;;;;;16.60;6.50;;;;;;;;;;781121;178;919961;-72
2021/03/20 01:04:54;;;;;;;8.13;4.63;;;;;;;;;;775196;179;915496;-72
2021/03/20 01:07:20;;;;;;;6.70;4.17;;;;;;;;;;777326;179;918582;-71
2021/03/20 01:09:46;;;;;;;9.70;5.13;;;;;;;;;;772894;179;2554094;-71
2021/03/20 01:12:12;;;;;;;12.35;6.03;;;;;;;;;;780326;179;921019;-72
2021/03/20 01:14:38;;;;;;;7.90;4.43;;;;;;;;;;775839;179;919213;-71
2021/03/20 01:17:04;;;;;;;10.37;6.03;;;;;;;;;;783012;179;918859;-71
2021/03/20 01:19:29;;;;;;;13.00;6.30;;;;;;;;;;776381;179;919279;-72
2021/03/20 01:21:55;;;;;;;16.27;5.75;;;;;;;;;;776922;179;920996;-71
2021/03/20 01:24:21;;;;;;;10.37;5.90;;;;;;;;;;774894;179;918939;-71
2021/03/20 01:26:47;;;;;;;10.17;4.20;;;;;;;;;;779901;179;943531;-69
2021/03/20 01:29:13;;;;;;;9.80;5.30;;;;;;;;;;777319;179;919633;-71
2021/03/20 01:31:39;;;;;;;10.30;3.40;;;;;;;;;;775591;179;921702;-71
2021/03/20 01:34:04;;;;;;;7.53;5.27;;;;;;;;;;783723;179;919765;-70
2021/03/20 01:36:30;;;;;;;9.50;4.90;;;;;;;;;;773126;179;1117772;-71
2021/03/20 01:38:56;;;;;;;8.65;4.87;;;;;;;;;;777092;179;1020880;-73
2021/03/20 01:41:22;;;;;;;5.77;4.40;;;;;;;;;;779755;179;1079270;-71
2021/03/20 01:43:48;;;;;;;8.90;6.03;;;;;;;;;;779214;179;919285;-71
2021/03/20 01:46:19;;;;;;;16.63;5.23;;;;;;;;;;775489;179;918843;-71
2021/03/20 01:48:45;;;;;;;12.63;6.00;;;;;;;;;;777542;179;919534;-71
2021/03/20 01:51:12;;;;;;;7.67;5.27;;;;;;;;;;780320;179;918909;-71
2021/03/20 01:53:38;;;;;;;16.70;6.77;;;;;;;;;;776957;179;918928;-71
2021/03/20 01:56:04;;;;;;;13.40;5.78;;;;;;;;;;774229;178;1082981;-71
2021/03/20 01:58:30;;;;;;;10.00;4.83;;;;;;;;;;781502;178;919058;-71
2021/03/20 02:01:05;;;;;;;16.77;5.47;;;;;;;;;;780009;178;919352;-71
2021/03/20 02:03:31;;;;;;;11.50;5.60;;;;;;;;;;777247;178;921568;-70
2021/03/20 02:05:59;;;;;;;14.25;4.70;;;;;;;;;;779019;178;918837;-71
2021/03/20 02:08:23;;;;;;;15.07;5.87;;;;;;;;;;781305;179;919509;-71
2021/03/20 02:10:48;;;;;;;11.10;6.10;;;;;;;;;;779267;178;921509;-72
2021/03/20 02:13:24;;;;;;;12.65;4.78;;;;;;;;;;776140;178;918539;-71
2021/03/20 02:15:50;;;;;;;10.77;5.60;;;;;;;;;;777909;179;921916;-74
2021/03/20 02:18:16;;;;;;;12.00;5.40;;;;;;;;;;777420;179;1504067;-72
2021/03/20 02:20:45;;;;;;;11.97;5.13;;;;;;;;;;776966;179;1021319;-72
2021/03/20 02:23:16;;;;;;;6.10;3.60;;;;;;;;;;776316;179;919041;-72
2021/03/20 02:25:59;;;;;;;6.50;3.13;;;;;;;;;;777335;179;918323;-70
2021/03/20 02:28:42;;;;;;;11.63;4.67;;;;;;;;;;763396;182;918593;-72
2021/03/20 02:31:09;;;;;;;5.97;3.37;;;;;;;;;;773117;179;922543;-70
2021/03/20 02:33:39;;;;;;;9.37;5.20;;;;;;;;;;779437;179;918581;-71
2021/03/20 02:36:21;;;;;;;15.67;5.17;;;;;;;;;;774774;179;927206;-71
2021/03/20 02:38:47;;;;;;;11.97;5.37;;;;;;;;;;772024;179;1024471;-71
2021/03/20 02:41:15;;;;;;;11.50;6.30;;;;;;;;;;777827;179;918754;-71
2021/03/20 02:43:41;;;;;;;11.27;4.43;;;;;;;;;;779066;179;919204;-70
2021/03/20 02:46:06;;;;;;;4.40;2.50;;;;;;;;;;778721;179;941892;-72
2021/03/20 02:48:32;;;;;;;11.80;5.43;;;;;;;;;;775578;179;918665;-68
2021/03/20 02:50:59;;;;;;;7.70;4.20;;;;;;;;;;773534;179;1043766;-70
2021/03/20 02:53:25;;;;;;;14.50;5.63;;;;;;;;;;774615;179;918436;-71
2021/03/20 02:55:51;;;;;;;12.40;5.30;;;;;;;;;;777710;179;918361;-72
2021/03/20 02:58:20;;;;;;;4.10;3.40;;;;;;;;;;779467;179;919511;-71
2021/03/20 03:00:47;;;;;;;15.43;6.20;;;;;;;;;;772498;179;921010;-73
2021/03/20 03:03:13;;;;;;;20.40;6.87;;;;;;;;;;777126;179;917029;-73
2021/03/20 03:05:39;;;;;;;11.43;5.93;;;;;;;;;;774323;179;915422;-70
2021/03/20 03:08:05;;;;;;;14.63;4.00;;;;;;;;;;782971;177;915521;-72
2021/03/20 03:10:31;;;;;;;12.10;6.10;;;;;;;;;;779245;178;915612;-71
2021/03/20 03:12:58;;;;;;;7.70;4.10;;;;;;;;;;780227;179;920046;-71
2021/03/20 03:15:23;;;;;;;10.70;5.27;;;;;;;;;;776272;178;919611;-70
2021/03/20 03:17:49;;;;;;;13.37;5.97;;;;;;;;;;781374;178;918771;-71
2021/03/20 03:20:16;;;;;;;11.23;4.83;;;;;;;;;;774670;178;919523;-70
2021/03/20 03:22:42;;;;;;;12.20;5.47;;;;;;;;;;777017;178;918790;-72
2021/03/20 03:25:08;;;;;;;3.83;2.17;;;;;;;;;;781345;178;918994;-71
2021/03/20 03:27:34;;;;;;;11.63;5.97;;;;;;;;;;779416;179;919324;-72
2021/03/20 03:30:00;;;;;;;7.72;4.12;;;;;;;;;;776872;179;919043;-71
2021/03/20 03:32:27;;;;;;;7.17;4.90;;;;;;;;;;784056;179;918906;-72
2021/03/20 03:34:54;;;;;;;7.23;4.00;;;;;;;;;;781424;179;622948;-71
2021/03/20 03:37:20;;;;;;;12.17;5.40;;;;;;;;;;782512;179;647024;-72
2021/03/20 03:39:56;;;;;;;17.70;5.67;;;;;;;;;;779585;179;919063;-72
2021/03/20 03:42:22;;;;;;;9.60;4.87;;;;;;;;;;782683;179;915010;-72
2021/03/20 03:44:47;;;;;;;11.07;5.67;;;;;;;;;;776937;179;921883;-71
2021/03/20 03:47:13;;;;;;;10.53;4.90;;;;;;;;;;775011;179;926884;-72
2021/03/20 03:49:39;;;;;;;9.73;4.37;;;;;;;;;;775621;179;944873;-72
2021/03/20 03:52:05;;;;;;;9.50;4.87;;;;;;;;;;778019;175;617676;-71
2021/03/20 03:54:31;;;;;;;8.93;4.90;;;;;;;;;;779029;179;675423;-72
2021/03/20 03:56:57;;;;;;;11.03;6.30;;;;;;;;;;779634;179;634411;-72
2021/03/20 03:59:23;;;;;;;14.17;5.30;;;;;;;;;;783413;179;620522;-72
2021/03/20 04:01:51;;;;;;;13.90;5.20;;;;;;;;;;778148;179;623278;-71
2021/03/20 04:04:18;;;;;;;8.87;5.23;;;;;;;;;;777490;179;919152;-72
2021/03/20 04:06:49;;;;;;;14.53;6.30;;;;;;;;;;780155;179;918383;-72
2021/03/20 04:09:36;;;;;;;13.70;5.63;;;;;;;;;;773345;182;919574;-72
2021/03/20 04:12:03;;;;;;;10.83;5.60;;;;;;;;;;772018;180;917734;-71
2021/03/20 04:14:30;;;;;;;15.20;6.13;;;;;;;;;;776434;179;919151;-72
2021/03/20 04:16:59;;;;;;;11.10;6.20;;;;;;;;;;775419;179;918784;-72
2021/03/20 04:19:32;;;;;;;19.40;7.00;;;;;;;;;;774773;178;934574;-70
2021/03/20 04:21:58;;;;;;;14.73;7.33;;;;;;;;;;780041;178;919671;-71
2021/03/20 04:24:26;;;;;;;16.30;5.90;;;;;;;;;;779107;178;919680;-72
2021/03/20 04:26:53;;;;;;;14.23;7.67;;;;;;;;;;782566;178;915578;-72
2021/03/20 04:29:20;;;;;;;6.00;3.30;;;;;;;;;;771971;179;916755;-71
2021/03/20 04:32:01;;;;;;;9.15;4.93;;;;;;;;;;781215;175;916223;-72
2021/03/20 04:34:47;;;;;;;7.87;4.20;;;;;;;;;;778669;179;914045;-71
2021/03/20 04:37:13;;;;;;;11.40;5.28;;;;;;;;;;771855;182;918475;-73
2021/03/20 04:39:38;;;;;;;12.07;5.20;;;;;;;;;;778307;179;919202;-73
2021/03/20 04:42:04;;;;;;;10.47;5.10;;;;;;;;;;777092;179;919801;-73
2021/03/20 04:44:30;;;;;;;13.73;6.20;;;;;;;;;;781173;179;918516;-72
2021/03/20 04:46:56;;;;;;;15.93;6.17;;;;;;;;;;777687;179;922483;-72
2021/03/20 04:49:39;;;;;;;12.83;6.57;;;;;;;;;;776482;179;918611;-72
2021/03/20 04:52:04;;;;;;;17.60;7.73;;;;;;;;;;779663;179;919315;-73
2021/03/20 04:54:30;;;;;;;15.20;6.70;;;;;;;;;;780112;179;1014307;-72
2021/03/20 04:57:07;;;;;;;8.90;4.37;;;;;;;;;;775275;179;918911;-71
2021/03/20 04:59:34;;;;;;;12.90;5.87;;;;;;;;;;774188;179;921785;-73
2021/03/20 05:02:00;;;;;;;21.75;5.53;;;;;;;;;;775663;179;921462;-70
2021/03/20 05:04:26;;;;;;;12.97;4.93;;;;;;;;;;780036;179;919408;-71
2021/03/20 05:06:52;;;;;;;7.90;4.67;;;;;;;;;;778183;179;919160;-72
2021/03/20 05:09:18;;;;;;;19.47;5.57;;;;;;;;;;775327;179;919123;-69
2021/03/20 05:11:44;;;;;;;27.62;7.32;;;;;;;;;;776870;179;918844;-71
2021/03/20 05:14:25;;;;;;;6.63;3.40;;;;;;;;;;772235;175;1975427;-71
2021/03/20 05:16:51;;;;;;;12.87;4.47;;;;;;;;;;772865;179;919626;-71
2021/03/20 05:19:17;;;;;;;12.30;6.33;;;;;;;;;;775052;179;928089;-71
2021/03/20 05:21:42;;;;;;;11.53;6.70;;;;;;;;;;776837;179;919358;-72
2021/03/20 05:24:08;;;;;;;15.63;6.70;;;;;;;;;;779584;179;919382;-71
2021/03/20 05:26:34;;;;;;;18.93;9.07;;;;;;;;;;774995;179;919657;-71
2021/03/20 05:29:05;;;;;;;16.17;7.60;;;;;;;;;;775932;179;918655;-72
2021/03/20 05:31:31;;;;;;;19.33;8.00;;;;;;;;;;783532;178;919001;-70
2021/03/20 05:33:56;;;;;;;22.37;10.90;;;;;;;;;;779882;178;918606;-72
2021/03/20 05:36:22;;;;;;;15.60;6.53;;;;;;;;;;776001;178;1199409;-70
2021/03/20 05:38:48;;;;;;;12.57;8.00;;;;;;;;;;777215;178;1021287;-68
2021/03/20 05:41:19;;;;;;;18.53;10.23;;;;;;;;;;772667;179;921730;-71
2021/03/20 05:43:49;;;;;;;23.87;9.80;;;;;;;;;;777849;178;1019850;-72
2021/03/20 05:46:36;;;;;;;15.53;8.73;;;;;;;;;;775304;178;918802;-71
2021/03/20 05:49:09;;;;;;;25.90;9.83;;;;;;;;;;779527;178;918361;-71
2021/03/20 05:51:36;;;;;;;23.20;9.77;;;;;;;;;;775053;179;919379;-72
2021/03/20 05:54:22;;;;;;;12.90;9.17;;;;;;;;;;782124;179;919236;-72
2021/03/20 05:56:53;;;;;;;19.03;10.87;;;;;;;;;;761102;182;3268283;-72
2021/03/20 05:59:19;;;;;;;18.40;9.60;;;;;;;;;;774337;182;919305;-71
2021/03/20 06:01:50;;;;;;;19.53;9.27;;;;;;;;;;775616;179;921430;-70
2021/03/20 06:04:16;;;;;;;24.50;12.13;;;;;;;;;;778337;179;918645;-69
2021/03/20 06:06:42;;;;;;;17.53;10.30;;;;;;;;;;778605;179;919448;-71
2021/03/20 06:09:12;;;;;;;19.00;8.33;;;;;;;;;;777711;179;918490;-72
2021/03/20 06:11:40;;;;;;;26.60;12.70;;;;;;;;;;773962;179;919279;-71
2021/03/20 06:14:12;;;;;;;35.40;20.35;;;;;;;;;;776705;179;919086;-70
2021/03/20 06:16:37;;;;;;;35.13;17.60;;;;;;;;;;769137;179;3017529;-71
2021/03/20 06:19:04;;;;;;;26.75;16.00;;;;;;;;;;777964;179;919358;-71
2021/03/20 06:21:33;;;;;;;20.50;11.20;;;;;;;;;;774537;179;918504;-70
2021/03/20 06:24:04;;;;;;;20.83;11.03;;;;;;;;;;775219;179;919510;-71
2021/03/20 06:26:34;;;;;;;14.63;8.07;;;;;;;;;;780033;179;918964;-70
2021/03/20 06:29:00;;;;;;;21.30;10.95;;;;;;;;;;780171;179;919269;-71
2021/03/20 06:31:30;;;;;;;21.33;12.33;;;;;;;;;;776151;179;919451;-69
2021/03/20 06:34:06;;;;;;;21.17;10.57;;;;;;;;;;777703;179;918188;-71
2021/03/20 06:36:34;;;;;;;17.90;9.60;;;;;;;;;;782374;179;919362;-69
2021/03/20 06:39:02;;;;;;;16.40;6.60;;;;;;;;;;771762;182;919004;-69
2021/03/20 06:41:28;;;;;;;18.67;10.07;;;;;;;;;;774572;179;919641;-70
2021/03/20 06:43:54;;;;;;;13.40;8.03;;;;;;;;;;779131;178;920417;-69
2021/03/20 06:46:20;;;;;;;39.90;12.10;;;;;;;;;;784624;178;919493;-69
2021/03/20 06:48:46;;;;;;;19.47;9.10;;;;;;;;;;777526;178;919106;-70
2021/03/20 06:51:12;;;;;;;26.03;13.30;;;;;;;;;;778010;178;919762;-72
2021/03/20 06:53:40;;;;;;;25.03;11.40;;;;;;;;;;781141;178;918610;-69
2021/03/20 06:56:06;;;;;;;23.80;10.57;;;;;;;;;;779158;178;945194;-71
2021/03/20 06:58:32;;;;;;;31.27;13.30;;;;;;;;;;776934;178;920079;-71
2021/03/20 07:00:58;;;;;;;27.55;10.77;;;;;;;;;;776910;178;922126;-71
2021/03/20 07:03:30;;;;;;;22.83;10.30;;;;;;;;;;778518;175;920581;-70
2021/03/20 07:05:57;;;;;;;26.90;13.77;;;;;;;;;;778106;179;920593;-72
2021/03/20 07:08:43;;;;;;;205.73;54.20;;;;;;;;;;774996;179;918635;-71
2021/03/20 07:11:08;;;;;;;17.13;7.00;;;;;;;;;;773573;178;1621360;-71
2021/03/20 07:13:41;;;;;;;32.53;12.13;;;;;;;;;;779650;179;917220;-70
2021/03/20 07:16:07;;;;;;;15.43;8.67;;;;;;;;;;770448;182;915488;-71
2021/03/20 07:18:43;;;;;;;16.83;8.37;;;;;;;;;;775795;179;920326;-69
2021/03/20 07:21:14;;;;;;;23.77;13.40;;;;;;;;;;778026;179;921961;-70
2021/03/20 07:23:40;;;;;;;9.07;5.10;;;;;;;;;;780050;179;914809;-69
2021/03/20 07:26:06;;;;;;;18.07;9.70;;;;;;;;;;775458;179;919503;-68
2021/03/20 07:28:32;;;;;;;24.93;13.13;;;;;;;;;;780064;179;918356;-69
2021/03/20 07:31:07;;;;;;;20.03;10.17;;;;;;;;;;775464;179;990272;-69
2021/03/20 07:33:35;;;;;;;14.67;8.50;;;;;;;;;;775501;179;919388;-67
2021/03/20 07:36:07;;;;;;;15.60;10.73;;;;;;;;;;780141;179;918915;-68
2021/03/20 07:38:33;;;;;;;19.23;9.63;;;;;;;;;;778395;179;918426;-68
2021/03/20 07:41:03;;;;;;;41.33;20.70;;;;;;;;;;772191;179;1021476;-68
2021/03/20 07:43:29;;;;;;;34.47;15.63;;;;;;;;;;776565;179;919155;-68
2021/03/20 07:45:55;;;;;;;31.00;15.63;;;;;;;;;;779826;179;1075417;-68
2021/03/20 07:48:24;;;;;;;24.27;13.90;;;;;;;;;;778911;179;919113;-68
2021/03/20 07:51:04;;;;;;;26.37;14.85;;;;;;;;;;775300;179;920985;-69
2021/03/20 07:53:31;;;;;;;18.50;11.23;;;;;;;;;;776915;177;1023182;-68
2021/03/20 07:56:08;;;;;;;18.83;9.80;;;;;;;;;;782365;178;918004;-68
2021/03/20 07:58:38;;;;;;;13.53;8.50;;;;;;;;;;775844;182;918449;-70
2021/03/20 08:01:05;;;;;;;19.53;9.63;;;;;;;;;;779477;178;637438;-68
2021/03/20 08:03:31;;;;;;;12.80;6.97;;;;;;;;;;784039;178;631835;-69
2021/03/20 08:06:03;;;;;;;21.43;10.30;;;;;;;;;;766227;178;3101079;-67
2021/03/20 08:08:29;;;;;;;12.67;5.00;;;;;;;;;;778976;179;618564;-67
2021/03/20 08:10:54;;;;;;;19.40;6.90;;;;;;;;;;779907;178;632897;-67
2021/03/20 08:13:22;;;;;;;20.97;10.23;;;;;;;;;;781622;179;635068;-67
2021/03/20 08:15:51;;;;;;;15.87;8.90;;;;;;;;;;781505;179;740149;-68
2021/03/20 08:18:18;;;;;;;11.33;6.63;;;;;;;;;;778000;182;614118;-67
2021/03/20 08:20:45;;;;;;;20.57;10.03;;;;;;;;;;779595;179;673325;-67
2021/03/20 08:23:16;;;;;;;11.30;5.63;;;;;;;;;;780306;179;656718;-68
2021/03/20 08:25:58;;;;;;;29.30;11.67;;;;;;;;;;781328;179;637278;-68
2021/03/20 08:28:25;;;;;;;20.63;9.73;;;;;;;;;;777002;182;622276;-69
2021/03/20 08:30:51;;;;;;;15.27;9.80;;;;;;;;;;780045;179;658012;-69
2021/03/20 08:33:19;;;;;;;22.10;9.70;;;;;;;;;;777868;179;654952;-71
2021/03/20 08:35:51;;;;;;;14.70;7.37;;;;;;;;;;779744;179;636092;-69
2021/03/20 08:38:28;;;;;;;39.83;14.50;;;;;;;;;;782379;178;628614;-69
2021/03/20 08:40:57;;;;;;;24.60;11.53;;;;;;;;;;776447;182;652506;-69
2021/03/20 08:43:29;;;;;;;9.07;6.73;;;;;;;;;;778698;179;631995;-69
2021/03/20 08:45:58;;;;;;;13.77;8.33;;;;;;;;;;781719;179;635654;-69
2021/03/20 08:48:26;;;;;;;12.20;7.77;;;;;;;;;;777878;179;630668;-68
2021/03/20 08:50:58;;;;;;;20.13;7.37;;;;;;;;;;783039;179;624120;-67
2021/03/20 08:53:30;;;;;;;17.20;8.33;;;;;;;;;;777203;179;824044;-67
2021/03/20 08:55:56;;;;;;;20.40;10.37;;;;;;;;;;779370;179;685352;-68
2021/03/20 08:58:27;;;;;;;20.63;9.70;;;;;;;;;;778554;179;613221;-67
2021/03/20 09:00:57;;;;;;;10.33;3.60;;;;;;;;;;784515;179;649451;-66
2021/03/20 09:03:23;;;;;;;7.33;4.70;;;;;;;;;;773613;182;616516;-67
2021/03/20 09:05:52;;;;;;;11.60;4.23;;;;;;;;;;782872;178;646465;-66
2021/03/20 09:08:19;;;;;;;13.90;9.17;;;;;;;;;;781572;178;625298;-67
2021/03/20 09:10:45;;;;;;;18.33;9.80;;;;;;;;;;786578;178;625037;-66
2021/03/20 09:13:11;;;;;;;26.63;7.60;;;;;;;;;;783042;178;628580;-66
2021/03/20 09:15:37;;;;;;;15.10;8.13;;;;;;;;;;776211;179;636320;-66
2021/03/20 09:18:03;;;;;;;18.63;8.63;;;;;;;;;;782337;178;628489;-65
2021/03/20 09:20:35;;;;;;;13.90;6.73;;;;;;;;;;783969;178;652788;-66
2021/03/20 09:23:02;;;;;;;28.30;6.40;;;;;;;;;;783456;178;638379;-67
2021/03/20 09:25:29;;;;;;;14.70;7.30;;;;;;;;;;779816;179;616421;-67
2021/03/20 09:27:59;;;;;;;10.03;3.90;;;;;;;;;;783923;179;638821;-66
2021/03/20 09:30:42;;;;;;;12.70;7.43;;;;;;;;;;777947;179;630218;-66
2021/03/20 09:33:14;;;;;;;29.53;13.37;;;;;;;;;;777351;182;623335;-66
2021/03/20 09:35:40;;;;;;;16.50;8.17;;;;;;;;;;780124;179;623092;-66
2021/03/20 09:38:06;;;;;;;10.73;6.03;;;;;;;;;;782373;179;637231;-65
2021/03/20 09:40:48;;;;;;;17.93;7.87;;;;;;;;;;782182;178;700842;-65
2021/03/20 09:43:21;;;;;;;22.83;9.10;;;;;;;;;;777901;182;619969;-66
2021/03/20 09:45:47;;;;;;;30.83;11.77;;;;;;;;;;774761;182;621917;-67
2021/03/20 09:48:13;;;;;;;14.87;6.30;;;;;;;;;;782071;179;629202;-66
2021/03/20 09:50:39;;;;;;;24.80;11.43;;;;;;;;;;769323;179;2082949;-65
2021/03/20 09:53:23;;;;;;;16.80;8.03;;;;;;;;;;784603;179;669407;-65
2021/03/20 09:55:50;;;;;;;12.27;7.23;;;;;;;;;;779775;179;626184;-66
2021/03/20 09:58:33;;;;;;;8.30;5.27;;;;;;;;;;782195;179;634523;-64
2021/03/20 10:01:00;;;;;;;8.33;3.57;;;;;;;;;;776426;179;768443;-66
2021/03/20 10:03:31;;;;;;;8.27;4.30;;;;;;;;;;781506;179;630329;-65
2021/03/20 10:06:03;;;;;;;10.67;6.87;;;;;;;;;;778721;179;624266;-65
2021/03/20 10:08:29;;;;;;;19.90;9.13;;;;;;;;;;785485;179;620564;-66
2021/03/20 10:10:55;;;;;;;6.50;5.17;;;;;;;;;;778359;179;629142;-66
2021/03/20 10:13:20;;;;;;;12.10;7.43;;;;;;;;;;783370;179;632523;-65
2021/03/20 10:15:52;;;;;;;6.37;3.80;;;;;;;;;;781616;179;628096;-65
2021/03/20 10:18:20;;;;;;;13.60;8.23;;;;;;;;;;779454;180;633176;-64
2021/03/20 10:20:45;;;;;;;39.10;21.10;;;;;;;;;;784901;178;616294;-65
2021/03/20 10:23:12;;;;;;;31.37;14.67;;;;;;;;;;777180;179;619020;-68
2021/03/20 10:25:37;;;;;;;56.73;26.33;;;;;;;;;;784233;178;626601;-67
2021/03/20 10:28:03;;;;;;;23.70;11.07;;;;;;;;;;772295;182;630661;-64
2021/03/20 10:30:29;;;;;;;12.77;8.70;;;;;;;;;;783478;178;686306;-65
2021/03/20 10:32:59;;;;;;;16.70;9.10;;;;;;;;;;783133;178;636043;-65
2021/03/20 10:35:26;;;;;;;26.10;13.07;;;;;;;;;;777054;182;624918;-64
2021/03/20 10:37:52;;;;;;;5.90;4.33;;;;;;;;;;780746;179;641213;-64
2021/03/20 10:40:21;;;;;;;12.67;6.23;;;;;;;;;;783588;179;633634;-65
2021/03/20 10:42:48;;;;;;;20.40;9.77;;;;;;;;;;748517;179;6032018;-65
2021/03/20 10:45:16;;;;;;;6.70;4.80;;;;;;;;;;779230;179;638071;-65
2021/03/20 10:47:43;;;;;;;6.87;3.70;;;;;;;;;;778023;179;634561;-64
2021/03/20 10:50:09;;;;;;;9.97;5.80;;;;;;;;;;782193;179;634783;-65
2021/03/20 10:52:34;;;;;;;9.00;5.03;;;;;;;;;;782696;179;618083;-64
2021/03/20 10:55:00;;;;;;;6.77;3.50;;;;;;;;;;782961;179;640072;-65
2021/03/20 10:57:26;;;;;;;11.70;7.60;;;;;;;;;;778304;179;633046;-65
2021/03/20 10:59:52;;;;;;;9.50;5.03;;;;;;;;;;781827;179;627724;-64
2021/03/20 11:02:30;;;;;;;7.03;3.13;;;;;;;;;;767966;179;636388;-65
2021/03/20 11:04:55;;;;;;;11.93;7.03;;;;;;;;;;783330;179;630176;-64
2021/03/20 11:07:21;;;;;;;13.63;5.90;;;;;;;;;;776077;179;738116;-65
2021/03/20 11:09:46;;;;;;;7.27;4.90;;;;;;;;;;783217;179;912676;-64
2021/03/20 11:12:12;;;;;;;7.27;5.60;;;;;;;;;;781455;179;636453;-65
2021/03/20 11:14:44;;;;;;;19.10;4.17;;;;;;;;;;777932;179;642287;-65
2021/03/20 11:17:10;;;;;;;17.07;7.77;;;;;;;;;;780266;179;637131;-65
2021/03/20 11:19:36;;;;;;;24.00;10.87;;;;;;;;;;777816;179;626310;-66
2021/03/20 11:22:03;;;;;;;12.57;7.17;;;;;;;;;;780396;179;632644;-64
2021/03/20 11:24:31;;;;;;;11.47;7.07;;;;;;;;;;775822;179;627622;-65
2021/03/20 11:26:55;;;;;;;13.87;7.53;;;;;;;;;;785380;179;652206;-65
2021/03/20 11:29:24;;;;;;;14.47;7.13;;;;;;;;;;781454;177;749505;-64
2021/03/20 11:31:53;;;;;;;10.53;6.30;;;;;;;;;;773365;178;622911;-63
2021/03/20 11:34:19;;;;;;;5.63;3.20;;;;;;;;;;780616;178;654207;-66
2021/03/20 11:36:45;;;;;;;19.57;10.87;;;;;;;;;;787171;178;638505;-67
2021/03/20 11:39:10;;;;;;;11.57;7.23;;;;;;;;;;780186;178;665046;-65
2021/03/20 11:41:37;;;;;;;4.47;3.40;;;;;;;;;;783457;178;635374;-67
2021/03/20 11:44:04;;;;;;;7.37;4.20;;;;;;;;;;784000;178;616779;-64
2021/03/20 11:46:30;;;;;;;9.53;3.40;;;;;;;;;;780468;178;638251;-66
2021/03/20 11:48:56;;;;;;;7.07;3.87;;;;;;;;;;779002;179;618217;-66
2021/03/20 11:51:23;;;;;;;8.07;4.97;;;;;;;;;;783496;179;632349;-66
2021/03/20 11:53:49;;;;;;;15.50;9.83;;;;;;;;;;779182;179;627873;-66
2021/03/20 11:56:16;;;;;;;9.23;6.03;;;;;;;;;;779829;179;629257;-66
2021/03/20 11:58:42;;;;;;;7.23;4.20;;;;;;;;;;782818;179;639064;-66
2021/03/20 12:01:13;;;;;;;8.53;4.10;;;;;;;;;;783749;179;624339;-66
2021/03/20 12:03:39;;;;;;;11.00;4.00;;;;;;;;;;782315;179;626276;-65
2021/03/20 12:06:11;;;;;;;3.57;2.33;;;;;;;;;;780469;179;630824;-65
2021/03/20 12:08:37;;;;;;;12.07;6.60;;;;;;;;;;782001;179;637132;-65
2021/03/20 12:11:04;;;;;;;6.73;3.00;;;;;;;;;;782854;179;639959;-65
2021/03/20 12:13:36;;;;;;;11.13;6.07;;;;;;;;;;782296;179;629722;-65
2021/03/20 12:16:02;;;;;;;23.60;12.50;;;;;;;;;;776645;179;699354;-66
2021/03/20 12:18:28;;;;;;;17.93;8.90;;;;;;;;;;781808;179;641436;-65
2021/03/20 12:20:54;;;;;;;24.87;14.00;;;;;;;;;;779009;175;614080;-65
2021/03/20 12:23:20;;;;;;;9.00;5.90;;;;;;;;;;781150;179;640464;-65
2021/03/20 12:25:48;;;;;;;74.30;27.43;;;;;;;;;;778213;179;628653;-65
2021/03/20 12:28:32;;;;;;;14.93;6.67;;;;;;;;;;785424;179;635146;-65
2021/03/20 12:31:00;;;;;;;8.47;3.70;;;;;;;;;;778382;179;634414;-65
2021/03/20 12:33:26;;;;;;;8.77;4.43;;;;;;;;;;782485;179;621413;-67
2021/03/20 12:35:52;;;;;;;4.93;2.23;;;;;;;;;;778461;179;744521;-65
2021/03/20 12:38:20;;;;;;;5.28;4.12;;;;;;;;;;783248;179;651034;-64
2021/03/20 12:40:56;;;;;;;7.37;3.43;;;;;;;;;;772095;180;619724;-65
2021/03/20 12:43:22;;;;;;;9.63;3.70;;;;;;;;;;784287;178;627333;-66
2021/03/20 12:45:48;;;;;;;4.77;3.80;;;;;;;;;;782573;178;633760;-65
2021/03/20 12:48:14;;;;;;;6.33;3.23;;;;;;;;;;781249;178;636368;-65
2021/03/20 12:50:40;;;;;;;8.10;4.90;;;;;;;;;;788045;175;616846;-64
2021/03/20 12:53:06;;;;;;;10.90;4.90;;;;;;;;;;778441;178;624462;-64
2021/03/20 12:55:32;;;;;;;9.73;5.83;;;;;;;;;;780413;178;1065964;-65
2021/03/20 12:57:57;;;;;;;9.17;4.97;;;;;;;;;;779858;178;1503071;-64
2021/03/20 13:00:23;;;;;;;8.83;4.80;;;;;;;;;;783805;179;618844;-64
2021/03/20 13:02:49;;;;;;;8.10;4.23;;;;;;;;;;780229;179;635423;-65
2021/03/20 13:05:15;;;;;;;9.13;4.50;;;;;;;;;;786849;179;615642;-65
2021/03/20 13:07:41;;;;;;;12.40;4.40;;;;;;;;;;781571;179;629062;-66
2021/03/20 13:10:07;;;;;;;31.97;17.90;;;;;;;;;;781963;179;641717;-66
2021/03/20 13:12:33;;;;;;;17.80;8.97;;;;;;;;;;782878;179;630122;-66
2021/03/20 13:14:58;;;;;;;39.03;16.00;;;;;;;;;;779881;179;748101;-65
2021/03/20 13:17:24;;;;;;;10.20;3.33;;;;;;;;;;776008;179;950889;-65
2021/03/20 13:19:50;;;;;;;8.63;4.57;;;;;;;;;;773835;180;631201;-64
2021/03/20 13:22:26;;;;;;;16.93;8.00;;;;;;;;;;786426;179;638174;-64
2021/03/20 13:24:52;;;;;;;7.57;4.90;;;;;;;;;;782530;179;686369;-65
2021/03/20 13:27:17;;;;;;;18.67;8.40;;;;;;;;;;782727;179;630001;-65
2021/03/20 13:29:43;;;;;;;11.13;5.97;;;;;;;;;;779225;179;639181;-65
2021/03/20 13:32:09;;;;;;;28.13;11.10;;;;;;;;;;772889;182;618008;-66
2021/03/20 13:34:35;;;;;;;87.83;31.17;;;;;;;;;;778657;179;919534;-65
2021/03/20 13:37:01;;;;;;;39.93;26.53;;;;;;;;;;776026;179;919545;-66
2021/03/20 13:39:27;;;;;;;9.43;5.47;;;;;;;;;;779109;179;919999;-66
2021/03/20 13:41:53;;;;;;;8.67;7.37;;;;;;;;;;778216;179;920764;-66
2021/03/20 13:44:19;;;;;;;4.90;4.40;;;;;;;;;;774360;179;918637;-65
2021/03/20 13:46:45;;;;;;;2.93;2.13;;;;;;;;;;782253;179;919167;-66
2021/03/20 13:49:10;;;;;;;30.00;14.50;;;;;;;;;;777277;179;919408;-65
2021/03/20 13:51:37;;;;;;;14.57;8.23;;;;;;;;;;779698;178;919381;-65
2021/03/20 13:54:02;;;;;;;5.05;3.35;;;;;;;;;;782563;178;920969;-64
2021/03/20 13:56:28;;;;;;;12.10;6.30;;;;;;;;;;779314;178;919596;-65
2021/03/20 13:58:54;;;;;;;9.90;5.60;;;;;;;;;;775699;178;918879;-64
2021/03/20 14:01:20;;;;;;;7.10;3.87;;;;;;;;;;778864;178;916832;-65
2021/03/20 14:03:46;;;;;;;4.60;3.57;;;;;;;;;;775315;179;919276;-65
2021/03/20 14:06:12;;;;;;;4.70;3.60;;;;;;;;;;773283;178;1090463;-65
2021/03/20 14:08:39;;;;;;;6.05;4.20;;;;;;;;;;775481;179;1288567;-64
2021/03/20 14:11:05;;;;;;;8.03;4.27;;;;;;;;;;780750;178;919471;-64
2021/03/20 14:13:31;;;;;;;6.13;4.13;;;;;;;;;;779527;179;919141;-65
2021/03/20 14:15:58;;;;;;;10.13;4.53;;;;;;;;;;776580;179;918076;-65
2021/03/20 14:18:23;;;;;;;4.47;3.03;;;;;;;;;;781004;179;918631;-66
2021/03/20 14:20:49;;;;;;;6.10;3.47;;;;;;;;;;774871;179;925634;-67
2021/03/20 14:23:15;;;;;;;14.03;4.20;;;;;;;;;;778690;179;902082;-64